Home > Products > Valid Products > MTR

000
SAUS45 KLKN 201557
MTRWMC
METAR KWMC 201556Z AUTO 01005KT 10SM CLR 11/M04 A3026 RMK AO2 SLP229
T01061039 TSNO





000
SAUS45 KLKN 201557 COR
MTRP68
METAR KP68 201553Z AUTO VRB05KT 12/M05 A3024 RMK AO1 SLP195
T01171050





000
SAUS45 KLKN 201457
MTRWMC
METAR KWMC 201456Z AUTO 00000KT 10SM CLR 09/M03 A3026 RMK AO2 SLP228
T00891033 51020 TSNO





000
SAUS45 KLKN 201454
MTRP68
METAR KP68 201453Z AUTO 00000KT 08/M03 A3023 RMK AO1 SLP192
T00831033 53015





000
SAUS45 KLKN 201357
MTRWMC
METAR KWMC 201356Z AUTO 07006KT 10SM CLR 05/M03 A3025 RMK AO2 SLP222
T00501028 TSNO





000
SAUS45 KLKN 201355
MTRP68
METAR KP68 201353Z AUTO 18003KT 02/M04 A3021 RMK AO1 SLP186
T00221039





000
SAUS45 KLKN 201257
MTRWMC
METAR KWMC 201256Z AUTO 34006KT 10SM CLR 04/M03 A3022 RMK AO2 SLP209
T00441028 TSNO





000
SAUS45 KLKN 201254
MTRP68
METAR KP68 201253Z AUTO 20005KT 02/M05 A3019 RMK AO1 SLP179
T00171050





000
SAUS45 KLKN 201157
MTRWMC
METAR KWMC 201156Z AUTO 32008KT 10SM CLR 03/M02 A3020 RMK AO2 SLP203
T00331022 10117 20022 53006 TSNO





000
SAUS45 KLKN 201155
MTRP68
METAR KP68 201153Z AUTO 20004KT 02/M05 A3018 RMK AO1 SLP175
T00171050 10100 20017 53007





000
SAUS45 KLKN 201057
MTRWMC
METAR KWMC 201056Z AUTO 32007KT 10SM CLR 05/M02 A3019 RMK AO2 SLP196
T00501022 TSNO





000
SAUS45 KLKN 201054
MTRP68
METAR KP68 201053Z AUTO 16003KT 03/M04 A3017 RMK AO1 SLP169
T00331039





000
SAUS45 KLKN 200957
MTRWMC
METAR KWMC 200956Z AUTO 31004KT 10SM CLR 07/M02 A3018 RMK AO2 SLP190
T00671022 TSNO





000
SAUS45 KLKN 200954
MTRP68
METAR KP68 200953Z AUTO 20005KT 06/M05 A3016 RMK AO1 SLP164
T00611050





000
SAUS45 KLKN 200857
MTRWMC
METAR KWMC 200856Z AUTO 33005KT 10SM CLR 10/M02 A3018 RMK AO2 SLP187
T01001022 53024 TSNO





000
SAUS45 KLKN 200854
MTRP68
METAR KP68 200853Z AUTO 29008KT 06/M06 A3015 RMK AO1 SLP157
T00561056 53017





000
SAUS45 KLKN 200757
MTRWMC
METAR KWMC 200756Z AUTO 34005KT 10SM CLR 11/M04 A3015 RMK AO2 SLP179
T01061039 402391006 TSNO





000
SAUS45 KLKN 200754
MTRP68
METAR KP68 200753Z AUTO VRB03KT 10/M06 A3013 RMK AO1 SLP142
T01001056 402170028





000
SAUS45 KLKN 200658
MTRWMC
METAR KWMC 200656Z AUTO 29007KT 10SM CLR 11/M07 A3012 RMK AO2 SLP167
T01111072 TSNO





000
SAUS45 KLKN 200654
MTRP68
METAR KP68 200653Z AUTO 19006KT 07/M03 A3011 RMK AO1 SLP141
T00721033





000
SAUS45 KLKN 200558
MTRWMC
METAR KWMC 200556Z AUTO 20006KT 10SM CLR 12/M06 A3010 RMK AO2 SLP163
T01171061 10239 20117 51035 TSNO





000
SAUS45 KLKN 200554
MTRP68
METAR KP68 200553Z AUTO 00000KT 09/M03 A3009 RMK AO1 SLP134
T00891033 10200 20067 51014





000
SAUS45 KLKN 200458
MTRWMC
METAR KWMC 200456Z AUTO 06003KT 10SM CLR 13/M08 A3006 RMK AO2 SLP152
T01331078 TSNO





000
SAUS45 KLKN 200454
MTRP68
METAR KP68 200453Z AUTO 15004KT 09/M03 A3009 RMK AO1 SLP135
T00941028





000
SAUS45 KLKN 200358
MTRWMC
METAR KWMC 200356Z AUTO 25009KT 10SM CLR 14/M08 A3002 RMK AO2 SLP143
T01391083 TSNO





000
SAUS45 KLKN 200354
MTRP68
METAR KP68 200353Z AUTO 00000KT 11/M02 A3008 RMK AO1 SLP136
T01061022





000
SAUS45 KLKN 200258
MTRWMC
METAR KWMC 200256Z AUTO 23009KT 10SM CLR 16/M07 A2998 RMK AO2 SLP132
T01561067 53016 TSNO





000
SAUS45 KLKN 200257 COR
MTRP68
METAR KP68 200253Z AUTO 30006KT 14/M01 A3004 RMK AO1 SLP124
T01391011 53011





000
SAUS45 KLKN 200256 COR
MTRP68
METAR KP68 200253Z AUTO 30006KT 14/M01 A3004 RMK AO1 SLP124
T01391011 53011





000
SAUS45 KLKN 200158
MTRWMC
METAR KWMC 200156Z AUTO 27014G22KT 10SM CLR 20/M06 A2995 RMK AO2
SLP120 T02001061 TSNO





000
SAUS45 KLKN 200154
MTRP68
METAR KP68 200153Z AUTO 26006KT 19/M01 A3001 RMK AO1 SLP111
T01941006





000
SAUS45 KLKN 200057
MTRWMC
METAR KWMC 200056Z AUTO 26017G25KT 10SM CLR 23/M06 A2993 RMK AO2
SLP115 T02281061 TSNO





000
SAUS45 KLKN 200054
MTRP68
METAR KP68 200053Z AUTO 16015KT 19/02 A3000 RMK AO1 SLP110 T01940022





000
SAUS45 KLKN 192358
MTRWMC
METAR KWMC 192356Z AUTO 20014G20KT 10SM CLR 23/M08 A2993 RMK AO2 PK
WND 23026/2322 SLP111 T02331083 10239 20178 56013 TSNO





000
SAUS45 KLKN 192355
MTRP68
METAR KP68 192353Z AUTO 16012KT 19/02 A3000 RMK AO1 SLP108 T01940022
10217 20161 58007





000
SAUS45 KLKN 192258
MTRWMC
METAR KWMC 192256Z AUTO 22014G20KT 10SM CLR 24/M11 A2993 RMK AO2
SLP113 T02391106 TSNO





000
SAUS45 KLKN 192254
MTRP68
METAR KP68 192253Z AUTO 16011KT 19/03 A3001 RMK AO1 SLP110 T01940028





000
SAUS45 KLKN 192158
MTRWMC
METAR KWMC 192156Z AUTO 24016G26KT 10SM CLR 24/M11 A2995 RMK AO2 PK
WND 22026/2154 SLP111 T02391111 TSNO





000
SAUS45 KLKN 192154
MTRP68
METAR KP68 192153Z AUTO 16015KT 17/04 A3003 RMK AO1 PK WND
16026/2127 SLP120 T01670044





000
SAUS45 KLKN 192058
MTRWMC
METAR KWMC 192056Z AUTO 23014G21KT 10SM CLR 23/M11 A2997 RMK AO2 PK
WND 26027/2031 SLP117 T02281106 57010 TSNO





000
SAUS45 KLKN 192054
MTRP68
METAR KP68 192053Z AUTO VRB04KT 19/M01 A3003 RMK AO1 SLP112
T01941006 55008





000
SAUS45 KLKN 191958
MTRWMC
METAR KWMC 191956Z AUTO 23010G18KT 10SM CLR 21/M08 A2997 RMK AO2
SLP118 T02111078 TSNO





000
SAUS45 KLKN 191954
MTRP68
METAR KP68 191953Z AUTO 28009G16KT 20/00 A3003 RMK AO1 SLP111
T02000000





000
SAUS45 KLKN 191858
MTRWMC
METAR KWMC 191856Z AUTO 25016G23KT 10SM CLR 21/M07 A2999 RMK AO2
SLP131 T02111067 TSNO





000
SAUS45 KLKN 191854
MTRP68
METAR KP68 191853Z AUTO 33009G15KT 19/01 A3005 RMK AO1 SLP119
T01890006





000
SAUS45 KLKN 191757
MTRWMC
METAR KWMC 191756Z AUTO 00000KT 10SM FEW065 18/M06 A3000 RMK AO2
SLP140 T01781061 10183 21006 58001 TSNO





000
SAUS45 KLKN 191754
MTRP68
METAR KP68 191753Z AUTO VRB03KT 18/01 A3006 RMK AO1 SLP124 T01780011
10183 20028 55000





000
SAUS45 KLKN 191657
MTRWMC
METAR KWMC 191656Z AUTO 00000KT 10SM CLR 16/M06 A3001 RMK AO2 SLP146
T01561061 TSNO





000
SAUS45 KLKN 191654
MTRP68
METAR KP68 191653Z AUTO VRB03KT 16/02 A3005 RMK AO1 SLP123 T01560022





000
SAUS45 KLKN 191557 COR
MTRP68
METAR KP68 191553Z AUTO 00000KT 12/03 A3005 RMK AO1 SLP129 T01220028





000
SAUS45 KLKN 191557
MTRWMC
METAR KWMC 191556Z AUTO 07003KT 10SM CLR 12/M04 A3001 RMK AO2 SLP143
T01171039 TSNO





000
SAUS45 KLKN 191556 COR
MTRP68
METAR KP68 191553Z AUTO 00000KT 12/03 A3005 RMK AO1 SLP129 T01220028





000
SAUS45 KLKN 191554
MTRP68
METAR KP68 191553Z AUTO 00000KT 12/03 A3005 RMK AO1 SLP129 T01220028





000
SAUS45 KLKN 191457
MTRWMC
METAR KWMC 191456Z AUTO 05003KT 10SM FEW080 07/M03 A3000 RMK AO2
SLP144 T00671033 53013 TSNO





000
SAUS45 KLKN 191455
MTRP68
METAR KP68 191453Z AUTO 30005KT 09/03 A3006 RMK AO1 SLP131 T00940033
51013





000
SAUS45 KLKN 191358
MTRWMC
METAR KWMC 191356Z AUTO 00000KT 10SM CLR 04/M05 A2998 RMK AO2 SLP134
T00441050 TSNO





000
SAUS45 KLKN 191354
MTRP68
METAR KP68 191353Z AUTO 20004KT 05/02 A3005 RMK AO1 SLP133 T00500017





000
SAUS45 KLKN 191258
MTRWMC
METAR KWMC 191256Z AUTO VRB06KT 10SM CLR 00/M07 A2997 RMK AO2 SLP133
T00001067 TSNO





000
SAUS45 KLKN 191255
MTRP68
METAR KP68 191253Z AUTO 19006KT 03/00 A3002 RMK AO1 SLP125 T00330000





000
SAUS45 KLKN 191158
MTRWMC
METAR KWMC 191156Z AUTO 14007KT 10SM CLR 01/M06 A2996 RMK AO2 SLP128
T00111056 10106 20006 53002 TSNO





000
SAUS45 KLKN 191154
MTRP68
METAR KP68 191153Z AUTO 22005KT 04/02 A3001 RMK AO1 SLP117 T00440017
10083 20033 53001





000
SAUS45 KLKN 191058
MTRWMC
METAR KWMC 191056Z AUTO 16005KT 10SM CLR 01/M07 A2996 RMK AO2 SLP128
T00111072 TSNO





000
SAUS45 KLKN 191054
MTRP68
METAR KP68 191053Z AUTO 20005KT 05/01 A3000 RMK AO1 SLP115 T00500011





000
SAUS45 KLKN 190958
MTRWMC
METAR KWMC 190956Z AUTO 07007KT 10SM CLR 07/M06 A2995 RMK AO2 SLP118
T00671056 TSNO





000
SAUS45 KLKN 190954
MTRP68
METAR KP68 190953Z AUTO 15006KT 06/02 A3000 RMK AO1 SLP108 T00610017





000
SAUS45 KLKN 190857
MTRWMC
METAR KWMC 190856Z AUTO 08008KT 10SM CLR 08/M06 A2996 RMK AO2 SLP119
T00831056 50002 TSNO





000
SAUS45 KLKN 190855
MTRP68
METAR KP68 190853Z AUTO 17005KT 07/03 A3001 RMK AO1 SLP105 T00720028
51001





000
SAUS45 KLKN 190757
MTRWMC
METAR KWMC 190756Z AUTO 05011KT 10SM CLR 11/M06 A2996 RMK AO2 SLP119
T01061061 402060033 TSNO





000
SAUS45 KLKN 190754
MTRP68
METAR KP68 190753Z AUTO 19004KT 07/02 A3001 RMK AO1 SLP106 T00670017
402000056





000
SAUS45 KLKN 190658
MTRWMC
METAR KWMC 190656Z AUTO 05008KT 10SM CLR 07/M06 A2996 RMK AO2 SLP126
T00671061 TSNO





000
SAUS45 KLKN 190654
MTRP68
METAR KP68 190653Z AUTO 17007KT 07/02 A3001 RMK AO1 SLP107 T00720017





000
SAUS45 KLKN 190558
MTRWMC
METAR KWMC 190556Z AUTO 07003KT 10SM CLR 04/M08 A2995 RMK AO2 SLP127
T00441078 10194 20033 51009 TSNO





000
SAUS45 KLKN 190554
MTRP68
METAR KP68 190553Z AUTO 00000KT 08/01 A3000 RMK AO1 SLP108 T00780011
10167 20078 51013





000
SAUS45 KLKN 190457
MTRWMC
METAR KWMC 190456Z AUTO 16005KT 10SM CLR 04/M07 A2995 RMK AO2 SLP129
T00391072 TSNO





000
SAUS45 KLKN 190454
MTRP68
METAR KP68 190453Z AUTO 14005KT 09/02 A2999 RMK AO1 SLP102 T00940017





000
SAUS45 KLKN 190357
MTRWMC
METAR KWMC 190356Z AUTO 06005KT 10SM CLR 11/M07 A2994 RMK AO2 SLP117
T01061072 TSNO





000
SAUS45 KLKN 190354
MTRP68
METAR KP68 190353Z AUTO 17006KT 10/02 A2998 RMK AO1 SLP101 T01000017





000
SAUS45 KLKN 190257
MTRWMC
METAR KWMC 190256Z AUTO 05004KT 10SM CLR 13/M08 A2992 RMK AO2 SLP113
T01281078 55000 TSNO





000
SAUS45 KLKN 190254
MTRP68
METAR KP68 190253Z AUTO 19006KT 13/02 A2996 RMK AO1 SLP092 T01280017
51006





000
SAUS45 KLKN 190201 COR
MTRP68
METAR KP68 190153Z AUTO VRB06KT 15/02 A2995 RMK AO1 SLP092 T01500017





000
SAUS45 KLKN 190157
MTRWMC
METAR KWMC 190156Z AUTO 02006KT 10SM CLR 18/M11 A2991 RMK AO2 SLP104
T01781106 TSNO





000
SAUS45 KLKN 190058
MTRWMC
METAR KWMC 190056Z AUTO 35006KT 10SM CLR 19/M12 A2991 RMK AO2 SLP103
T01941122 TSNO





000
SAUS45 KLKN 190054
MTRP68
METAR KP68 190053Z AUTO 34007KT 16/02 A2995 RMK AO1 SLP089 T01560017





000
SAUS45 KLKN 182358
MTRWMC
METAR KWMC 182356Z AUTO 28007KT 10SM CLR 19/M12 A2992 RMK AO2 SLP105
T01941122 10206 20133 56016 TSNO





000
SAUS45 KLKN 182354
MTRP68
METAR KP68 182353Z AUTO 15009KT 17/01 A2994 RMK AO1 SLP082 T01670011
10200 20156 58008





000
SAUS45 KLKN 182258
MTRWMC
METAR KWMC 182256Z AUTO 31010KT 10SM CLR 20/M05 A2993 RMK AO2 SLP108
T02001050 TSNO





000
SAUS45 KLKN 182257 COR
MTRP68
METAR KP68 182253Z AUTO 15016KT 16/02 A2995 RMK AO1 SLP086 T01610022





000
SAUS45 KLKN 182255 COR
MTRP68
METAR KP68 182253Z AUTO 15016KT 16/02 A2995 RMK AO1 SLP086 T01610022





000
SAUS45 KLKN 182254
MTRP68
METAR KP68 182253Z AUTO 15016KT 16/02 A2995 RMK AO1 SLP086 T01610022





000
SAUS45 KLKN 182158
MTRWMC
METAR KWMC 182156Z AUTO 01007KT 350V060 10SM CLR 19/M05 A2995 RMK
AO2 SLP117 T01941050 TSNO





000
SAUS45 KLKN 182154
MTRP68
METAR KP68 182153Z AUTO 09004KT 18/01 A2995 RMK AO1 SLP082 T01780006





000
SAUS45 KLKN 182057
MTRWMC
METAR KWMC 182056Z AUTO 26005KT 10SM CLR 18/M05 A2997 RMK AO2 SLP126
T01781050 58016 TSNO





000
SAUS45 KLKN 182054
MTRP68
METAR KP68 182053Z AUTO 34008KT 19/02 A2996 RMK AO1 SLP077 T01890017
56013





000
SAUS45 KLKN 181957
MTRWMC
METAR KWMC 181956Z AUTO 01007KT 10SM CLR 17/01 A2999 RMK AO2 SLP132
T01670006 TSNO





000
SAUS45 KLKN 181954
MTRP68
METAR KP68 181953Z AUTO 02006KT 18/02 A2998 RMK AO1 SLP084 T01830022





000
SAUS45 KLKN 181857
MTRWMC
METAR KWMC 181856Z AUTO VRB03KT 10SM CLR 15/02 A3001 RMK AO2 SLP141
T01500017 TSNO





000
SAUS45 KLKN 181854
MTRP68
METAR KP68 181853Z AUTO 02010KT 350V070 18/02 A2999 RMK AO1 SLP083
T01780022





000
SAUS45 KLKN 181758
MTRWMC
METAR KWMC 181756Z AUTO VRB03KT 10SM CLR 14/03 A3003 RMK AO2 SLP144
T01390033 10139 20072 50002 TSNO





000
SAUS45 KLKN 181754
MTRP68
METAR KP68 181753Z AUTO 02009KT 16/03 A3001 RMK AO1 SLP092 T01610028
10167 20072 53007





000
SAUS45 KLKN 181658
MTRWMC
METAR KWMC 181656Z AUTO VRB05KT 10SM CLR 12/03 A3003 RMK AO2 SLP146
T01220033 TSNO





000
SAUS45 KLKN 181654
MTRP68
METAR KP68 181653Z AUTO 35012G19KT 16/04 A3000 RMK AO1 SLP088
T01560039





000
SAUS45 KLKN 181558
MTRWMC
METAR KWMC 181556Z AUTO 36007KT 10SM CLR 11/04 A3002 RMK AO2 SLP143
T01110039 TSNO





000
SAUS45 KLKN 181554
MTRP68
METAR KP68 181553Z AUTO 36006KT 14/04 A2999 RMK AO1 SLP088 T01390039





000
SAUS45 KLKN 181457
MTRWMC
METAR KWMC 181456Z AUTO 31005KT 10SM CLR 08/04 A3002 RMK AO2 SLP143
T00780044 53013 TSNO





000
SAUS45 KLKN 181454
MTRP68
METAR KP68 181453Z AUTO 00000KT 11/01 A2998 RMK AO1 SLP087 T01110006
53020 $





000
SAUS45 KLKN 181357
MTRWMC
METAR KWMC 181356Z AUTO 25003KT 10SM FEW110 08/04 A2999 RMK AO2
SLP128 T00780044 TSNO





000
SAUS45 KLKN 181354
MTRP68
METAR KP68 181353Z AUTO 07003KT 08/00 A2995 RMK AO1 SLP081 T00780000
$





000
SAUS45 KLKN 181257
MTRWMC
METAR KWMC 181256Z AUTO 29004KT 10SM OVC047 08/04 A2998 RMK AO2
SLP123 T00780039 TSNO





000
SAUS45 KLKN 181254
MTRP68
METAR KP68 181253Z AUTO 00000KT 09/M01 A2992 RMK AO1 SLP064
T00891006 $





000
SAUS45 KLKN 181157
MTRWMC
METAR KWMC 181156Z AUTO 34003KT 10SM OVC048 08/03 A2997 RMK AO2
SLP116 70003 T00780033 10117 20067 53009 TSNO





000
SAUS45 KLKN 181154
MTRP68
METAR KP68 181153Z AUTO 21005KT 09/M01 A2991 RMK AO1 SLP058
T00891006 10178 20089 50002 $





000
SAUS45 KLKN 181057
MTRWMC
METAR KWMC 181056Z AUTO 00000KT 10SM BKN120 07/03 A2995 RMK AO2
SLP110 T00670033 TSNO





000
SAUS45 KLKN 181054
MTRP68
METAR KP68 181053Z AUTO 00000KT 11/M01 A2992 RMK AO1 SLP059
T01061011 $





000
SAUS45 KLKN 180957
MTRWMC
METAR KWMC 180956Z AUTO 26006KT 10SM OVC110 07/05 A2994 RMK AO2
SLP108 T00720050 TSNO





000
SAUS45 KLKN 180954
MTRP68
METAR KP68 180953Z AUTO VRB05KT 11/M02 A2991 RMK AO1 SLP055
T01061017 $





000
SAUS45 KLKN 180858
MTRWMC
METAR KWMC 180856Z AUTO 28008KT 10SM OVC100 08/04 A2994 RMK AO2
SLP108 T00780044 51021 TSNO





000
SAUS45 KLKN 180855
MTRP68
METAR KP68 180853Z AUTO 00000KT 14/M01 A2990 RMK AO1 SLP047
T01441011 50007 $





000
SAUS45 KLKN 180758
MTRWMC
METAR KWMC 180756Z AUTO 30008KT 10SM CLR 08/04 A2993 RMK AO2 SLP105
T00830044 402560000 TSNO





000
SAUS45 KLKN 180754
MTRP68
METAR KP68 180753Z AUTO 27007KT 15/M03 A2991 RMK AO1 SLP050
T01501028 402501011 $





000
SAUS45 KLKN 180658
MTRWMC
METAR KWMC 180656Z AUTO 32008KT 10SM SCT100 09/06 A2991 RMK AO2
SLP097 T00940056 TSNO





000
SAUS45 KLKN 180654
MTRP68
METAR KP68 180653Z AUTO 21007KT 16/M06 A2989 RMK AO1 SLP046
T01611061 $





000
SAUS45 KLKN 180558
MTRWMC
METAR KWMC 180556Z AUTO 34010G18KT 10SM FEW075 SCT100 12/07 A2987
RMK AO2 RAE12 SLP084 P0000 60003 T01170067 10250 20117 53031 TSNO





000
SAUS45 KLKN 180554
MTRP68
METAR KP68 180553Z AUTO 21012KT 17/M06 A2988 RMK AO1 SLP043
T01671061 10244 20167 51010 $





000
SAUS45 KLKN 180458
MTRWMC
METAR KWMC 180456Z AUTO 33003KT 10SM -RA SCT055 BKN070 OVC100 13/09
A2983 RMK AO2 RAB02 SLP073 P0002 T01280089 TSNO





000
SAUS45 KLKN 180454
MTRP68
METAR KP68 180453Z AUTO 20017KT 18/M07 A2987 RMK AO1 PK WND
20027/0407 SLP046 T01781072 $





000
SAUS45 KLKN 180357
MTRWMC
METAR KWMC 180356Z AUTO 30008KT 10SM FEW070 SCT085 OVC110 14/08
A2980 RMK AO2 SLP065 T01440083 TSNO





000
SAUS45 KLKN 180354
MTRP68
METAR KP68 180353Z AUTO 20017G24KT 18/M07 A2985 RMK AO1 SLP045
T01831072 $





000
SAUS45 KLKN 180257
MTRWMC
METAR KWMC 180256Z AUTO 13006KT 10SM FEW070 BKN090 OVC110 16/06
A2977 RMK AO2 PK WND 18032/0234 WSHFT 0225 RAB27E55 SLP054 P0001
60001 T01610056 53004 TSNO





000
SAUS45 KLKN 180254
MTRP68
METAR KP68 180253Z AUTO 20016KT 19/M08 A2984 RMK AO1 SLP047
T01941078 53003 $





000
SAUS45 KLKN 180250 COR
MTRWMC
SPECI KWMC 180245Z AUTO 20010G31KT 10SM -RA SCT070 OVC090 16/06
A2978 RMK AO2 PK WND 18032/0234 WSHFT 0225 RAB27 P0001 T01610061
TSNO





000
SAUS45 KLKN 180247 COR
MTRWMC
SPECI KWMC 180245Z AUTO 20010G31KT 10SM -RA SCT070 OVC090 16/06
A2978 RMK AO2 PK WND 18032/0234 WSHFT 0225 RAB27 P0001 T01610061
TSNO





000
SAUS45 KLKN 180157
MTRWMC
METAR KWMC 180156Z AUTO 20004KT 10SM FEW100 22/M02 A2973 RMK AO2
SLP037 T02171017 TSNO





000
SAUS45 KLKN 180154
MTRP68
METAR KP68 180153Z AUTO 21014KT 21/M09 A2983 RMK AO1 SLP049
T02061089 $





000
SAUS45 KLKN 180057
MTRWMC
METAR KWMC 180056Z AUTO 21012KT 10SM CLR 23/M03 A2974 RMK AO2 SLP045
T02281028 TSNO





000
SAUS45 KLKN 180054
MTRP68
METAR KP68 180053Z AUTO 20018G24KT 23/M08 A2982 RMK AO1 PK WND
20028/0017 SLP047 T02331078 $





000
SAUS45 KLKN 172357
MTRWMC
METAR KWMC 172356Z AUTO 23015G21KT 10SM CLR 25/M03 A2975 RMK AO2
SLP050 T02501028 10256 20194 56022 TSNO





000
SAUS45 KLKN 172354
MTRP68
METAR KP68 172353Z AUTO 21017G25KT 24/M07 A2983 RMK AO1 PK WND
18026/2335 SLP047 T02391067 10250 20178 56023 $





000
SAUS45 KLKN 172257
MTRWMC
METAR KWMC 172256Z AUTO 28011G22KT 10SM FEW100 25/M03 A2977 RMK AO2
SLP056 T02501028 TSNO





000
SAUS45 KLKN 172254
MTRP68
METAR KP68 172253Z AUTO 18015G30KT 24/M06 A2985 RMK AO1 PK WND
20034/2216 SLP055 T02391056 $





000
SAUS45 KLKN 172157
MTRWMC
METAR KWMC 172156Z AUTO 22008G15KT 10SM CLR 24/M03 A2980 RMK AO2
SLP058 T02391028 TSNO





000
SAUS45 KLKN 172154
MTRP68
METAR KP68 172153Z AUTO 18017G23KT 23/M05 A2987 RMK AO1 PK WND
17027/2129 SLP060 T02331050 $





000
SAUS45 KLKN 172057
MTRWMC
METAR KWMC 172056Z AUTO VRB03KT 10SM CLR 23/M02 A2983 RMK AO2 SLP075
T02281022 58022 TSNO





000
SAUS45 KLKN 172054
MTRP68
METAR KP68 172053Z AUTO VRB06G20KT 23/M04 A2991 RMK AO1 SLP075
T02281044 57024 $





000
SAUS45 KLKN 171958
MTRWMC
METAR KWMC 171956Z AUTO VRB05KT 10SM CLR 23/M03 A2985 RMK AO2 SLP080
T02281028 TSNO





000
SAUS45 KLKN 171954
MTRP68
METAR KP68 171953Z AUTO 15013G18KT 23/M04 A2994 RMK AO1 SLP082
T02281039 $





000
SAUS45 KLKN 171858
MTRWMC
METAR KWMC 171856Z AUTO 16011G17KT 10SM CLR 22/M02 A2988 RMK AO2
SLP092 T02171022 TSNO





000
SAUS45 KLKN 171854
MTRP68
METAR KP68 171853Z AUTO 16012G20KT 20/M04 A2997 RMK AO1 SLP098
T02001039





000
SAUS45 KLKN 171758
MTRWMC
METAR KWMC 171756Z AUTO 17011G16KT 10SM CLR 19/M03 A2990 RMK AO2
SLP104 T01941028 10200 20000 58020 TSNO





000
SAUS45 KLKN 171754
MTRP68
METAR KP68 171753Z AUTO 14009G19KT 18/M04 A3000 RMK AO1 SLP109
T01831039 10183 21011 58014





000
SAUS45 KLKN 171657
MTRWMC
METAR KWMC 171656Z AUTO 06007KT 10SM CLR 16/M01 A2993 RMK AO2 SLP117
T01561011 TSNO





000
SAUS45 KLKN 171654
MTRP68
METAR KP68 171653Z AUTO VRB03KT 14/M02 A3002 RMK AO1 SLP121
T01391022





    US Dept of Commerce
    National Oceanic and Atmospheric Administration
    National Weather Service
    1325 East West Highway
    Silver Spring, MD 20910
    Page Author: NWS Internet Services Team
Disclaimer
Information Quality
Credits
Glossary
Privacy Policy
Freedom of Information Act (FOIA)
About Us
Career Opportunities